Time;durP1;ratioP1;P1;durP2;ratioP2;P2;SDS_P1;SDS_P2;PMS_P1;PMS_P2;Temp;Humidity;BMP_temperature;BMP_pressure;BME280_temperature;BME280_humidity;BME280_pressure;Samples;Min_cycle;Max_cycle;Signal;HPM_P1;HPM_P2
2023/12/11 00:01:09;;;;;;;6.37;0.97;;;10.30;99.90;;;;;;5023583;28;20175;-93
2023/12/11 00:03:35;;;;;;;24.40;1.53;;;10.20;99.90;;;;;;5005474;28;20244;-93
2023/12/11 00:06:02;;;;;;;0.77;0.77;;;10.20;99.90;;;;;;5021876;28;20227;-94
2023/12/11 00:08:28;;;;;;;0.73;0.73;;;10.20;99.90;;;;;;5022049;28;20635;-93
2023/12/11 00:10:54;;;;;;;2.50;1.03;;;10.30;99.90;;;;;;5038496;28;20230;-93
2023/12/11 00:13:19;;;;;;;2.47;2.27;;;10.30;99.90;;;;;;5021677;28;20702;-94
2023/12/11 00:15:49;;;;;;;3.50;1.80;;;10.30;99.90;;;;;;5022711;28;20218;-94
2023/12/11 00:18:15;;;;;;;4.40;1.30;;;10.40;99.90;;;;;;5023889;28;20230;-90
2023/12/11 00:20:41;;;;;;;10.50;1.87;;;10.40;99.90;;;;;;5032792;28;20227;-92
2023/12/11 00:23:09;;;;;;;2.43;2.23;;;10.40;99.90;;;;;;5033899;28;20226;-92
2023/12/11 00:25:37;;;;;;;3.80;1.60;;;10.40;99.90;;;;;;5025601;28;20183;-92
2023/12/11 00:28:05;;;;;;;2.13;0.83;;;10.40;99.90;;;;;;5023545;28;20178;-94
2023/12/11 00:30:33;;;;;;;18.63;3.33;;;10.30;99.90;;;;;;5022355;28;20214;-93
2023/12/11 00:32:59;;;;;;;6.13;0.73;;;10.40;99.90;;;;;;5018295;28;20224;-93
2023/12/11 00:35:27;;;;;;;12.10;0.77;;;10.40;99.90;;;;;;5018810;28;20345;-93
2023/12/11 00:37:53;;;;;;;1.73;1.63;;;10.50;99.90;;;;;;5020433;28;20238;-91
2023/12/11 00:40:19;;;;;;;5.50;1.80;;;10.50;99.90;;;;;;5020281;28;20182;-92
2023/12/11 00:42:45;;;;;;;21.67;3.27;;;10.50;99.90;;;;;;5028720;28;20171;-91
2023/12/11 00:45:17;;;;;;;0.77;0.77;;;10.40;99.90;;;;;;5007961;28;20222;-94
2023/12/11 00:47:43;;;;;;;1.77;1.07;;;10.50;99.90;;;;;;5036114;28;20223;-94
2023/12/11 00:50:08;;;;;;;18.57;3.40;;;10.60;99.90;;;;;;5018716;28;20221;-94
2023/12/11 00:52:35;;;;;;;1.60;0.50;;;10.60;99.90;;;;;;5018140;28;20265;-94
2023/12/11 00:55:01;;;;;;;1.77;1.07;;;10.50;99.90;;;;;;5018948;28;20213;-93
2023/12/11 00:57:27;;;;;;;0.83;0.70;;;10.60;99.90;;;;;;5017886;28;20252;-93
2023/12/11 00:59:52;;;;;;;7.73;1.07;;;10.60;99.90;;;;;;5018242;28;20214;-94
2023/12/11 01:02:18;;;;;;;1.63;1.53;;;10.60;99.90;;;;;;5002052;28;20238;-93
2023/12/11 01:04:44;;;;;;;3.50;1.20;;;10.60;99.90;;;;;;5017720;28;20230;-91
2023/12/11 01:07:10;;;;;;;2.37;0.43;;;10.50;99.90;;;;;;5019102;28;20182;-94
2023/12/11 01:09:36;;;;;;;3.33;3.03;;;10.60;99.90;;;;;;5035461;28;20222;-94
2023/12/11 01:12:03;;;;;;;6.30;1.80;;;10.50;99.90;;;;;;5018437;28;20238;-93
2023/12/11 01:14:29;;;;;;;9.83;2.57;;;10.60;99.90;;;;;;5017316;28;20234;-93
2023/12/11 01:16:55;;;;;;;1.13;1.13;;;10.60;99.90;;;;;;5017777;28;20306;-94
2023/12/11 01:19:20;;;;;;;4.93;0.77;;;10.50;99.90;;;;;;5017502;28;20333;-93
2023/12/11 01:21:46;;;;;;;8.37;2.10;;;10.60;99.90;;;;;;5002349;28;20187;-93
2023/12/11 01:24:12;;;;;;;3.97;2.17;;;10.60;99.90;;;;;;5018247;28;20242;-93
2023/12/11 01:26:38;;;;;;;0.60;0.60;;;10.50;99.90;;;;;;5018298;28;20222;-93
2023/12/11 01:29:04;;;;;;;5.70;1.60;;;10.50;99.90;;;;;;5034672;28;20218;-94
2023/12/11 01:31:30;;;;;;;12.77;1.07;;;10.60;99.90;;;;;;5017335;28;20185;-92
2023/12/11 01:33:56;;;;;;;13.03;1.07;;;10.60;99.90;;;;;;5035360;28;20362;-94
2023/12/11 01:36:22;;;;;;;7.07;1.43;;;10.70;99.90;;;;;;5001335;28;20230;-92
2023/12/11 01:38:50;;;;;;;9.43;2.03;;;10.70;99.90;;;;;;5000888;28;20222;-93
2023/12/11 01:41:16;;;;;;;2.00;1.60;;;10.70;99.90;;;;;;5016716;28;20232;-93
2023/12/11 01:43:54;;;;;;;0.60;0.60;;;10.60;99.90;;;;;;5001001;28;20309;-93
2023/12/11 01:46:24;;;;;;;2.93;1.03;;;10.50;99.90;;;;;;5017482;28;20177;-93
2023/12/11 01:48:52;;;;;;;6.37;1.50;;;10.60;99.90;;;;;;5017972;28;20167;-93
2023/12/11 01:51:19;;;;;;;9.07;1.80;;;10.50;99.90;;;;;;5017311;28;20220;-94
2023/12/11 01:53:48;;;;;;;3.93;1.30;;;10.60;99.90;;;;;;5018473;28;20314;-94
2023/12/11 01:56:15;;;;;;;2.90;2.70;;;10.60;99.90;;;;;;5017891;28;20366;-94
2023/12/11 01:58:41;;;;;;;1.90;0.93;;;10.60;99.90;;;;;;5034608;28;20297;-93
2023/12/11 02:01:10;;;;;;;7.10;4.50;;;10.60;99.90;;;;;;5036159;28;20202;-93
2023/12/11 02:03:37;;;;;;;1.07;0.60;;;10.60;99.90;;;;;;5034367;28;20252;-93
2023/12/11 02:06:03;;;;;;;2.97;0.40;;;10.60;99.90;;;;;;5034823;28;20215;-93
2023/12/11 02:08:29;;;;;;;4.23;0.77;;;10.60;99.90;;;;;;5017416;28;20241;-93
2023/12/11 02:10:55;;;;;;;0.40;0.40;;;10.60;99.90;;;;;;5035504;28;20603;-93
2023/12/11 02:13:22;;;;;;;3.07;1.47;;;10.60;99.90;;;;;;5028633;28;20235;-91
2023/12/11 02:15:50;;;;;;;3.20;0.97;;;10.60;99.90;;;;;;5020838;28;20213;-91
2023/12/11 02:18:16;;;;;;;14.10;1.77;;;10.60;99.90;;;;;;5036803;28;20248;-93
2023/12/11 02:20:44;;;;;;;7.53;1.00;;;10.50;99.90;;;;;;5054811;28;20323;-93
2023/12/11 02:23:34;;;;;;;1.43;1.33;;;10.40;99.90;;;;;;5036605;28;20225;-94
2023/12/11 02:26:17;;;;;;;0.40;0.40;;;10.40;99.90;;;;;;5053118;28;20249;-94
2023/12/11 02:28:43;;;;;;;1.10;0.93;;;10.30;99.90;;;;;;5036711;28;20275;-93
2023/12/11 02:31:09;;;;;;;10.20;2.77;;;10.30;99.90;;;;;;5036893;28;20182;-95
2023/12/11 02:33:36;;;;;;;4.23;1.60;;;10.20;99.90;;;;;;5036006;28;20217;-92
2023/12/11 02:36:04;;;;;;;0.73;0.73;;;10.30;99.90;;;;;;5036736;28;20236;-93
2023/12/11 02:38:30;;;;;;;1.33;1.27;;;10.30;99.90;;;;;;5019703;28;20217;-93
2023/12/11 02:40:56;;;;;;;3.80;1.13;;;10.40;99.90;;;;;;5036424;28;20689;-91
2023/12/11 02:43:22;;;;;;;1.10;0.93;;;10.40;99.90;;;;;;5052634;28;20220;-92
2023/12/11 02:45:48;;;;;;;3.60;1.27;;;10.30;99.90;;;;;;5020360;28;20185;-94
2023/12/11 02:48:18;;;;;;;3.30;0.87;;;10.40;99.90;;;;;;5019629;28;20688;-93
2023/12/11 02:50:44;;;;;;;0.83;0.63;;;10.30;99.90;;;;;;5020256;28;20222;-93
2023/12/11 02:53:10;;;;;;;1.90;1.80;;;10.30;99.90;;;;;;5036258;28;20279;-93
2023/12/11 02:55:35;;;;;;;9.43;1.93;;;10.30;99.90;;;;;;5035349;28;20279;-94
2023/12/11 02:58:03;;;;;;;2.20;2.10;;;10.40;99.90;;;;;;5020402;28;20268;-92
2023/12/11 03:00:32;;;;;;;3.90;0.87;;;10.30;99.90;;;;;;5035738;28;20234;-94
2023/12/11 03:02:58;;;;;;;11.23;1.27;;;10.30;99.90;;;;;;5026552;28;20236;-94
2023/12/11 03:05:24;;;;;;;5.97;1.13;;;10.30;99.90;;;;;;5036103;28;20252;-91
2023/12/11 03:07:50;;;;;;;3.03;1.83;;;10.30;99.90;;;;;;5036217;28;20218;-92
2023/12/11 03:10:16;;;;;;;3.13;1.60;;;10.40;99.90;;;;;;5036629;28;20196;-94
2023/12/11 03:12:42;;;;;;;1.60;0.50;;;10.40;99.90;;;;;;5036633;28;20301;-91
2023/12/11 03:15:09;;;;;;;10.67;1.43;;;10.50;99.90;;;;;;5036507;28;20257;-92
2023/12/11 03:17:35;;;;;;;6.10;1.00;;;10.50;99.90;;;;;;5027941;28;20229;-93
2023/12/11 03:20:02;;;;;;;1.50;0.47;;;10.50;99.90;;;;;;5035970;28;20602;-93
2023/12/11 03:22:28;;;;;;;1.63;1.07;;;10.50;99.90;;;;;;5035724;28;20634;-92
2023/12/11 03:24:55;;;;;;;8.03;1.13;;;10.50;99.90;;;;;;5053438;28;20216;-94
2023/12/11 03:27:21;;;;;;;12.67;1.23;;;10.50;99.90;;;;;;5035797;28;20229;-90
2023/12/11 03:29:50;;;;;;;2.70;2.50;;;10.60;99.90;;;;;;5052950;28;20245;-92
2023/12/11 03:32:18;;;;;;;1.73;1.57;;;10.60;99.90;;;;;;5028021;28;20221;-93
2023/12/11 03:34:46;;;;;;;0.63;0.63;;;10.60;99.90;;;;;;5052530;28;20669;-93
2023/12/11 03:37:12;;;;;;;14.33;1.33;;;10.60;99.90;;;;;;5019888;28;20182;-94
2023/12/11 03:39:38;;;;;;;9.27;1.93;;;10.60;99.90;;;;;;5052312;28;20674;-93
2023/12/11 03:42:04;;;;;;;2.53;2.40;;;10.60;99.90;;;;;;5036563;28;20222;-93
2023/12/11 03:44:30;;;;;;;4.23;1.13;;;10.60;99.90;;;;;;5035330;28;20223;-91
2023/12/11 03:46:57;;;;;;;21.23;1.73;;;10.60;99.90;;;;;;5035995;28;20381;-91
2023/12/11 03:49:23;;;;;;;7.53;2.37;;;10.60;99.90;;;;;;5019002;28;20634;-90
2023/12/11 03:51:49;;;;;;;4.07;1.70;;;10.60;99.90;;;;;;5019968;28;20232;-93
2023/12/11 03:54:16;;;;;;;0.30;0.30;;;10.60;99.90;;;;;;5036205;28;20577;-93
2023/12/11 03:56:42;;;;;;;3.30;2.50;;;10.60;99.90;;;;;;5036112;28;20297;-94
2023/12/11 03:59:08;;;;;;;4.53;1.70;;;10.60;99.90;;;;;;5035679;28;20234;-93
2023/12/11 04:01:34;;;;;;;0.50;0.50;;;10.60;99.90;;;;;;5053424;28;20171;-93
2023/12/11 04:04:00;;;;;;;2.70;1.60;;;10.60;99.90;;;;;;5036743;28;20692;-92
2023/12/11 04:06:26;;;;;;;2.40;1.67;;;10.60;99.90;;;;;;5035249;28;20230;-91
2023/12/11 04:08:53;;;;;;;1.47;1.37;;;10.60;99.90;;;;;;5039273;28;20282;-92
2023/12/11 04:11:18;;;;;;;2.30;2.20;;;10.60;99.90;;;;;;5023027;28;20222;-92
2023/12/11 04:13:44;;;;;;;6.17;1.67;;;10.70;99.90;;;;;;5033423;28;20230;-92
2023/12/11 04:16:11;;;;;;;1.47;1.10;;;10.70;99.90;;;;;;5036307;28;20225;-93
2023/12/11 04:18:38;;;;;;;8.87;1.43;;;10.70;99.90;;;;;;5035760;28;20222;-92
2023/12/11 04:21:04;;;;;;;7.13;1.33;;;10.60;99.90;;;;;;5035504;28;20214;-93
2023/12/11 04:23:31;;;;;;;10.80;2.60;;;10.70;99.90;;;;;;5037930;28;20616;-93
2023/12/11 04:25:59;;;;;;;4.37;2.40;;;10.70;99.90;;;;;;5037284;28;20222;-91
2023/12/11 04:28:30;;;;;;;21.70;2.87;;;10.70;99.90;;;;;;5036974;28;20182;-93
2023/12/11 04:30:55;;;;;;;5.27;2.20;;;10.70;99.90;;;;;;5036158;28;20177;-91
2023/12/11 04:33:21;;;;;;;1.47;0.80;;;10.70;99.90;;;;;;5018756;28;20210;-92
2023/12/11 04:35:47;;;;;;;0.50;0.50;;;10.70;99.90;;;;;;5018610;28;20231;-93
2023/12/11 04:38:15;;;;;;;4.67;0.87;;;10.70;99.90;;;;;;5035016;28;20566;-93
2023/12/11 04:40:43;;;;;;;11.37;1.53;;;10.80;99.90;;;;;;5018299;28;20302;-93
2023/12/11 04:43:09;;;;;;;1.03;1.03;;;10.70;99.90;;;;;;5036598;28;20186;-92
2023/12/11 04:45:35;;;;;;;19.57;3.63;;;10.80;99.90;;;;;;5018824;28;20222;-92
2023/12/11 04:48:01;;;;;;;5.73;2.10;;;10.70;99.90;;;;;;5035444;28;20245;-93
2023/12/11 04:50:27;;;;;;;1.33;1.20;;;10.70;99.90;;;;;;5035477;28;20234;-93
2023/12/11 04:52:53;;;;;;;4.33;1.23;;;10.70;99.90;;;;;;5035188;28;20281;-92
2023/12/11 04:55:18;;;;;;;2.67;1.50;;;10.70;99.90;;;;;;5034903;28;20214;-93
2023/12/11 04:57:44;;;;;;;9.03;1.60;;;10.80;99.90;;;;;;5019638;28;20609;-91
2023/12/11 05:00:11;;;;;;;13.27;1.27;;;10.80;99.90;;;;;;5028791;28;20232;-92
2023/12/11 05:02:36;;;;;;;1.47;1.13;;;10.80;99.90;;;;;;5002375;28;20268;-93
2023/12/11 05:05:02;;;;;;;5.87;0.93;;;10.70;99.90;;;;;;5019002;28;20214;-93
2023/12/11 05:07:31;;;;;;;11.87;3.00;;;10.70;99.90;;;;;;5036409;28;20537;-92
2023/12/11 05:09:59;;;;;;;2.70;1.70;;;10.80;99.90;;;;;;5036374;28;20170;-92
2023/12/11 05:12:25;;;;;;;1.70;0.93;;;10.80;99.90;;;;;;5034207;28;20222;-93
2023/12/11 05:14:51;;;;;;;6.57;2.27;;;10.70;99.90;;;;;;5017974;28;20336;-92
2023/12/11 05:17:17;;;;;;;1.37;0.87;;;10.80;99.90;;;;;;5034717;28;20230;-94
2023/12/11 05:19:43;;;;;;;52.23;4.30;;;10.80;99.90;;;;;;5017437;28;20218;-92
2023/12/11 05:22:09;;;;;;;1.80;1.23;;;10.80;99.90;;;;;;5035164;28;20586;-94
2023/12/11 05:24:35;;;;;;;10.73;0.97;;;10.80;99.90;;;;;;5034707;28;20238;-92
2023/12/11 05:27:01;;;;;;;3.80;1.17;;;10.80;99.90;;;;;;5034397;28;20605;-91
2023/12/11 05:29:27;;;;;;;11.23;1.60;;;10.80;99.90;;;;;;5033739;28;20242;-93
2023/12/11 05:31:53;;;;;;;1.23;0.77;;;10.70;99.90;;;;;;5017659;28;20624;-90
2023/12/11 05:34:19;;;;;;;0.63;0.63;;;10.70;99.90;;;;;;5033965;28;20171;-92
2023/12/11 05:36:45;;;;;;;1.13;0.30;;;10.80;99.90;;;;;;5034607;28;20260;-93
2023/12/11 05:39:10;;;;;;;0.70;0.20;;;10.70;99.90;;;;;;5033918;28;20245;-92
2023/12/11 05:41:36;;;;;;;1.20;1.07;;;10.70;99.90;;;;;;5034779;28;20229;-92
2023/12/11 05:44:02;;;;;;;2.70;0.97;;;10.70;99.90;;;;;;5017304;28;20294;-92
2023/12/11 05:46:28;;;;;;;0.83;0.83;;;10.60;99.90;;;;;;5034716;28;20264;-93
2023/12/11 05:48:54;;;;;;;3.00;0.70;;;10.60;99.90;;;;;;5035426;28;20201;-93
2023/12/11 05:51:21;;;;;;;0.60;0.60;;;10.60;99.90;;;;;;5017276;28;20225;-91
2023/12/11 05:53:47;;;;;;;1.23;0.93;;;10.60;99.90;;;;;;5033539;28;20237;-92
2023/12/11 05:56:13;;;;;;;1.10;0.90;;;10.50;99.90;;;;;;5017126;28;20253;-91
2023/12/11 05:58:39;;;;;;;6.13;2.40;;;10.50;99.90;;;;;;5034329;28;20218;-93
2023/12/11 06:01:05;;;;;;;2.40;2.07;;;10.40;99.90;;;;;;5035782;28;20198;-93
2023/12/11 06:03:30;;;;;;;3.30;2.93;;;10.50;99.90;;;;;;5034206;28;20288;-93
2023/12/11 06:05:59;;;;;;;3.93;1.07;;;10.50;99.90;;;;;;5000772;28;20227;-91
2023/12/11 06:08:25;;;;;;;0.93;0.63;;;10.60;99.90;;;;;;5033556;28;20218;-92
2023/12/11 06:10:51;;;;;;;4.80;0.87;;;10.60;99.90;;;;;;5033313;28;20285;-89
2023/12/11 06:13:17;;;;;;;0.93;0.93;;;10.50;99.90;;;;;;5017004;28;20190;-91
2023/12/11 06:15:43;;;;;;;3.97;1.63;;;10.50;99.90;;;;;;5020619;28;20263;-92
2023/12/11 06:18:09;;;;;;;2.33;0.80;;;10.50;99.90;;;;;;5036234;28;20221;-90
2023/12/11 06:20:35;;;;;;;0.60;0.60;;;10.40;99.90;;;;;;5053226;28;20712;-92
2023/12/11 06:23:01;;;;;;;0.70;0.70;;;10.50;99.90;;;;;;5003950;28;20703;-92
2023/12/11 06:25:27;;;;;;;3.50;1.40;;;10.40;99.90;;;;;;5036221;28;20209;-92
2023/12/11 06:27:53;;;;;;;0.40;0.40;;;10.50;99.90;;;;;;5020565;28;20600;-91
2023/12/11 06:30:19;;;;;;;4.50;2.13;;;10.40;99.90;;;;;;5052969;28;20656;-90
2023/12/11 06:32:45;;;;;;;0.43;0.43;;;10.40;99.90;;;;;;5003698;28;20626;-93
2023/12/11 06:35:11;;;;;;;3.97;1.27;;;10.40;99.90;;;;;;5020257;28;20746;-92
2023/12/11 06:37:37;;;;;;;1.70;1.60;;;10.40;99.90;;;;;;5003994;28;20241;-94
2023/12/11 06:40:03;;;;;;;3.83;0.97;;;10.50;99.90;;;;;;5037105;28;20601;-94
2023/12/11 06:42:36;;;;;;;6.27;0.50;;;10.50;99.90;;;;;;5019909;28;20218;-94
2023/12/11 06:45:02;;;;;;;12.03;0.80;;;10.40;99.90;;;;;;5053415;28;20226;-93
2023/12/11 06:47:28;;;;;;;0.40;0.40;;;10.50;99.90;;;;;;5036253;28;20217;-93
2023/12/11 06:49:54;;;;;;;0.83;0.83;;;10.40;99.90;;;;;;5036091;28;20232;-93
2023/12/11 06:52:19;;;;;;;17.97;2.13;;;10.40;99.90;;;;;;5035871;28;20594;-92
2023/12/11 06:54:45;;;;;;;1.67;1.37;;;10.40;99.90;;;;;;5020538;28;20532;-92
2023/12/11 06:57:11;;;;;;;4.73;1.20;;;10.40;99.90;;;;;;5020234;28;20214;-92
2023/12/11 06:59:40;;;;;;;7.10;1.03;;;10.40;99.90;;;;;;5004722;28;20672;-95
2023/12/11 07:02:06;;;;;;;0.70;0.40;;;10.50;99.90;;;;;;5036263;28;20639;-92
2023/12/11 07:04:31;;;;;;;0.10;0.10;;;10.60;99.90;;;;;;5035609;28;20175;-92
2023/12/11 07:06:57;;;;;;;6.33;2.27;;;10.50;99.90;;;;;;5020519;28;20245;-91
2023/12/11 07:09:24;;;;;;;3.60;0.60;;;10.50;99.90;;;;;;5053602;28;20214;-94
2023/12/11 07:11:50;;;;;;;4.47;2.17;;;10.50;99.90;;;;;;5054932;28;20643;-94
2023/12/11 07:14:15;;;;;;;6.93;1.40;;;10.50;99.90;;;;;;5015883;28;20231;-90
2023/12/11 07:16:41;;;;;;;4.20;0.80;;;10.50;99.90;;;;;;5048769;28;20241;-92
2023/12/11 07:19:10;;;;;;;0.97;0.77;;;10.40;99.90;;;;;;5033800;28;20201;-92
2023/12/11 07:21:36;;;;;;;0.50;0.50;;;10.40;99.90;;;;;;5032194;28;20225;-91
2023/12/11 07:24:05;;;;;;;1.60;1.17;;;10.40;99.90;;;;;;5049746;28;20218;-92
2023/12/11 07:26:31;;;;;;;4.73;0.97;;;10.40;99.90;;;;;;5032827;28;20705;-92
2023/12/11 07:29:00;;;;;;;0.67;0.67;;;10.40;99.90;;;;;;5033715;28;20606;-93
2023/12/11 07:31:26;;;;;;;2.63;1.57;;;10.50;99.90;;;;;;5032177;28;20189;-90
2023/12/11 07:33:52;;;;;;;3.80;2.20;;;10.30;99.90;;;;;;5032896;28;20269;-89
2023/12/11 07:36:18;;;;;;;0.77;0.77;;;10.40;99.90;;;;;;5049482;28;20226;-94
2023/12/11 07:38:44;;;;;;;5.40;1.03;;;10.50;99.90;;;;;;5033525;28;20226;-92
2023/12/11 07:41:10;;;;;;;7.70;1.47;;;10.30;99.90;;;;;;5033597;28;20215;-93
2023/12/11 07:43:35;;;;;;;6.67;2.83;;;10.30;99.90;;;;;;5036077;28;20222;-90
2023/12/11 07:46:02;;;;;;;0.93;0.93;;;10.40;99.90;;;;;;5037437;28;20668;-90
2023/12/11 07:48:28;;;;;;;0.83;0.83;;;10.30;99.90;;;;;;5036259;28;20297;-91
2023/12/11 07:50:54;;;;;;;1.63;0.90;;;10.30;99.90;;;;;;5035968;28;20219;-90
2023/12/11 07:53:20;;;;;;;1.73;1.27;;;10.30;99.90;;;;;;5035836;28;20277;-89
2023/12/11 07:55:45;;;;;;;1.27;1.23;;;10.30;99.90;;;;;;5036202;28;20695;-89
2023/12/11 07:58:14;;;;;;;4.60;0.67;;;10.50;99.90;;;;;;5036927;28;20266;-89
2023/12/11 08:00:40;;;;;;;0.63;0.63;;;10.30;99.90;;;;;;5034948;28;20695;-92
2023/12/11 08:03:06;;;;;;;2.10;0.83;;;10.40;99.90;;;;;;5052566;28;20219;-91
2023/12/11 08:05:32;;;;;;;4.50;1.40;;;10.40;99.90;;;;;;5036144;28;20302;-91
2023/12/11 08:07:57;;;;;;;2.83;0.30;;;10.50;99.90;;;;;;5035635;28;20604;-94
2023/12/11 08:10:23;;;;;;;0.70;0.63;;;10.40;99.90;;;;;;5019130;28;20186;-93
2023/12/11 08:12:53;;;;;;;0.83;0.50;;;10.50;99.90;;;;;;5035697;28;20186;-92
2023/12/11 08:15:19;;;;;;;0.43;0.30;;;10.50;99.90;;;;;;5055713;28;20245;-93
2023/12/11 08:17:44;;;;;;;0.20;0.20;;;10.60;99.90;;;;;;5038413;28;20214;-92
2023/12/11 08:20:11;;;;;;;0.33;0.33;;;10.40;99.90;;;;;;5005085;28;20226;-91
2023/12/11 08:22:36;;;;;;;11.40;3.93;;;10.50;99.90;;;;;;5005363;28;20205;-92
2023/12/11 08:25:03;;;;;;;0.73;0.73;;;10.40;99.90;;;;;;5038388;28;20287;-91
2023/12/11 08:27:29;;;;;;;4.67;1.17;;;10.60;99.90;;;;;;5056343;28;20241;-92
2023/12/11 08:29:55;;;;;;;0.93;0.70;;;10.60;99.90;;;;;;5038504;28;20690;-92
2023/12/11 08:32:21;;;;;;;6.53;0.60;;;10.60;99.90;;;;;;5022232;28;20217;-91
2023/12/11 08:34:47;;;;;;;1.50;0.90;;;10.60;99.90;;;;;;5038342;28;20252;-91
2023/12/11 08:37:13;;;;;;;0.43;0.43;;;10.60;99.90;;;;;;5039216;28;20206;-91
2023/12/11 08:39:38;;;;;;;1.70;1.13;;;10.60;99.90;;;;;;5022333;28;20599;-92
2023/12/11 08:42:04;;;;;;;0.73;0.60;;;10.50;99.90;;;;;;5005878;28;20701;-92
2023/12/11 08:44:30;;;;;;;1.37;1.37;;;10.40;99.90;;;;;;5006134;28;20244;-93
2023/12/11 08:46:56;;;;;;;4.73;1.00;;;10.50;99.90;;;;;;5024201;28;20858;-89
2023/12/11 08:49:22;;;;;;;12.93;1.10;;;10.40;99.90;;;;;;5026684;28;20178;-92
2023/12/11 08:51:47;;;;;;;2.23;0.97;;;10.50;99.90;;;;;;5026719;28;20272;-89
2023/12/11 08:54:13;;;;;;;1.97;0.80;;;10.40;99.90;;;;;;5027412;28;20276;-90
2023/12/11 08:56:39;;;;;;;0.10;0.10;;;10.30;99.90;;;;;;5026272;28;20287;-89
2023/12/11 08:59:05;;;;;;;0.20;0.20;;;10.20;99.90;;;;;;5021068;28;20842;-88
2023/12/11 09:01:34;;;;;;;0.50;0.50;;;10.20;99.90;;;;;;5022030;28;20189;-88
2023/12/11 09:04:01;;;;;;;0.20;0.20;;;10.30;99.90;;;;;;5037801;28;20636;-88
2023/12/11 09:06:26;;;;;;;0.67;0.43;;;10.30;99.90;;;;;;5021347;28;20232;-86
2023/12/11 09:08:55;;;;;;;0.30;0.30;;;10.30;99.90;;;;;;5021215;28;20721;-87
2023/12/11 09:11:21;;;;;;;0.20;0.20;;;10.20;99.90;;;;;;5037772;28;20241;-88
2023/12/11 09:13:47;;;;;;;19.33;1.00;;;10.30;99.90;;;;;;5054931;28;20238;-85
2023/12/11 09:16:13;;;;;;;1.07;0.97;;;10.20;99.90;;;;;;5021266;28;20577;-86
2023/12/11 09:18:38;;;;;;;3.40;0.63;;;10.20;99.90;;;;;;5021296;28;20240;-87
2023/12/11 09:21:04;;;;;;;0.80;0.80;;;10.20;99.90;;;;;;5037395;28;20221;-88
2023/12/11 09:23:33;;;;;;;0.53;0.53;;;10.10;99.90;;;;;;5004634;28;20214;-85
2023/12/11 09:25:59;;;;;;;1.53;1.43;;;10.20;99.90;;;;;;5020643;28;20319;-87
2023/12/11 09:28:25;;;;;;;0.50;0.50;;;10.10;99.90;;;;;;5021273;28;20602;-86
2023/12/11 09:30:52;;;;;;;12.30;2.77;;;10.30;99.90;;;;;;5020701;28;20669;-87
2023/12/11 09:33:17;;;;;;;1.80;0.67;;;10.20;99.90;;;;;;5020782;28;20657;-87
2023/12/11 09:35:43;;;;;;;0.30;0.30;;;10.30;99.90;;;;;;5021062;28;20250;-86
2023/12/11 09:38:10;;;;;;;0.20;0.20;;;10.30;99.90;;;;;;5020298;28;20586;-88
2023/12/11 09:40:36;;;;;;;0.50;0.50;;;10.40;99.90;;;;;;5037326;28;20757;-87
2023/12/11 09:43:04;;;;;;;0.20;0.20;;;10.30;99.90;;;;;;5020964;28;20633;-87
2023/12/11 09:45:31;;;;;;;0.50;0.50;;;10.40;99.90;;;;;;5036835;28;20235;-88
2023/12/11 09:47:58;;;;;;;5.20;0.60;;;10.40;99.90;;;;;;5030329;28;20222;-86
2023/12/11 09:50:24;;;;;;;2.10;0.63;;;10.50;99.90;;;;;;5036434;28;20233;-87
2023/12/11 09:52:54;;;;;;;2.23;0.80;;;10.50;99.90;;;;;;5036136;28;20229;-88
2023/12/11 09:55:20;;;;;;;3.67;1.30;;;10.50;99.90;;;;;;5036420;28;20198;-88
2023/12/11 09:57:47;;;;;;;0.37;0.37;;;10.40;99.90;;;;;;5036566;28;20189;-90
2023/12/11 10:00:13;;;;;;;7.53;2.33;;;10.30;99.90;;;;;;5036112;28;20271;-88
2023/12/11 10:02:40;;;;;;;0.50;0.50;;;10.40;99.90;;;;;;5036067;28;20217;-89
2023/12/11 10:05:08;;;;;;;24.10;0.93;;;10.50;99.90;;;;;;5019868;28;20217;-88
2023/12/11 10:07:41;;;;;;;3.83;0.93;;;10.40;99.90;;;;;;5035974;28;20682;-88
2023/12/11 10:10:26;;;;;;;0.50;0.50;;;10.40;99.90;;;;;;5020968;28;20205;-85
2023/12/11 10:12:53;;;;;;;2.20;1.40;;;10.40;99.90;;;;;;5020185;28;20198;-89
2023/12/11 10:15:22;;;;;;;1.07;1.07;;;10.30;99.90;;;;;;5001194;28;20242;-89
2023/12/11 10:18:12;;;;;;;0.40;0.40;;;10.40;99.90;;;;;;5033979;28;20680;-90
2023/12/11 10:20:40;;;;;;;11.33;0.90;;;10.30;99.90;;;;;;5016330;28;20219;-88
2023/12/11 10:23:23;;;;;;;2.57;0.97;;;10.40;99.90;;;;;;5033779;28;20611;-88
2023/12/11 10:25:52;;;;;;;2.30;2.20;;;10.40;99.90;;;;;;5016654;28;20223;-91
2023/12/11 10:28:20;;;;;;;0.57;0.30;;;10.30;99.90;;;;;;5033718;28;20182;-90
2023/12/11 10:30:50;;;;;;;1.50;1.40;;;10.30;99.90;;;;;;5017157;28;20269;-90
2023/12/11 10:33:19;;;;;;;1.37;0.67;;;10.40;99.90;;;;;;5033707;28;20226;-91
2023/12/11 10:35:45;;;;;;;2.13;1.50;;;10.40;99.90;;;;;;5016161;28;20234;-92
2023/12/11 10:38:25;;;;;;;0.10;0.10;;;10.20;99.90;;;;;;5016781;28;20322;-90
2023/12/11 10:40:52;;;;;;;1.57;0.83;;;10.30;99.90;;;;;;5016412;28;20237;-89
2023/12/11 10:43:18;;;;;;;10.97;0.30;;;10.20;99.90;;;;;;5016595;28;20225;-90
2023/12/11 10:45:45;;;;;;;0.60;0.60;;;10.10;99.90;;;;;;5016927;28;20178;-88
2023/12/11 10:48:11;;;;;;;0.10;0.10;;;10.00;99.90;;;;;;5016276;28;20591;-87
2023/12/11 10:50:38;;;;;;;1.57;1.50;;;10.00;99.90;;;;;;5016033;28;20229;-88
2023/12/11 10:53:03;;;;;;;0.20;0.20;;;10.00;99.90;;;;;;5016089;28;20251;-87
2023/12/11 10:55:33;;;;;;;0.33;0.33;;;10.00;99.90;;;;;;5032884;28;20248;-87
2023/12/11 10:58:02;;;;;;;0.33;0.33;;;10.00;99.90;;;;;;5016521;28;20179;-89
2023/12/11 11:00:30;;;;;;;1.70;0.83;;;9.90;99.90;;;;;;5015874;28;20671;-89
2023/12/11 11:02:58;;;;;;;0.27;0.27;;;9.70;99.90;;;;;;5016189;28;20352;-87
2023/12/11 11:05:27;;;;;;;0.20;0.20;;;9.70;99.90;;;;;;5016200;28;20219;-89
2023/12/11 11:08:00;;;;;;;0.97;0.40;;;9.70;99.90;;;;;;5015726;28;20237;-90
2023/12/11 11:10:34;;;;;;;0.10;0.10;;;9.90;99.90;;;;;;5016373;28;20171;-90
2023/12/11 11:13:14;;;;;;;0.27;0.27;;;10.00;99.90;;;;;;5016662;28;20190;-90
2023/12/11 11:15:40;;;;;;;0.20;0.20;;;10.10;99.90;;;;;;5052398;28;20312;-91
2023/12/11 11:18:09;;;;;;;0.30;0.30;;;10.20;99.90;;;;;;5037821;28;20330;-89
2023/12/11 11:20:39;;;;;;;0.10;0.10;;;10.20;99.90;;;;;;5027284;28;20217;-89
2023/12/11 11:23:17;;;;;;;0.17;0.17;;;10.30;99.90;;;;;;5052370;28;20226;-87
2023/12/11 11:25:52;;;;;;;0.20;0.20;;;10.20;99.90;;;;;;5035490;28;20221;-88
2023/12/11 11:28:40;;;;;;;2.67;1.63;;;10.30;99.90;;;;;;5035836;28;20227;-89
2023/12/11 11:31:07;;;;;;;0.40;0.40;;;10.20;99.90;;;;;;5036614;28;20205;-91
2023/12/11 11:33:50;;;;;;;1.53;1.43;;;10.20;99.90;;;;;;5035365;28;20297;-88
2023/12/11 11:36:21;;;;;;;1.23;1.17;;;10.10;99.90;;;;;;5053215;28;20240;-89
2023/12/11 11:39:07;;;;;;;0.20;0.20;;;10.10;99.90;;;;;;5035400;28;20217;-89
2023/12/11 11:41:32;;;;;;;1.23;1.13;;;10.00;99.90;;;;;;5034662;28;20627;-89
2023/12/11 11:44:06;;;;;;;0.30;0.30;;;9.90;99.90;;;;;;5019454;28;20229;-89
2023/12/11 11:46:59;;;;;;;2.20;1.03;;;10.00;99.90;;;;;;5035320;28;20174;-90
2023/12/11 11:49:31;;;;;;;0.93;0.93;;;9.90;99.90;;;;;;5035058;28;20175;-88
2023/12/11 11:51:58;;;;;;;0.43;0.43;;;10.00;99.90;;;;;;5035806;28;20205;-88
2023/12/11 11:54:25;;;;;;;0.50;0.50;;;10.00;99.90;;;;;;5035242;28;20263;-88
2023/12/11 11:56:51;;;;;;;0.50;0.50;;;9.90;99.90;;;;;;5035058;28;20312;-89
2023/12/11 11:59:20;;;;;;;9.53;0.77;;;10.00;99.90;;;;;;5051643;28;20279;-90
2023/12/11 12:01:56;;;;;;;0.17;0.17;;;10.10;99.90;;;;;;5035063;28;20325;-90
2023/12/11 12:04:34;;;;;;;7.53;0.50;;;10.10;99.90;;;;;;5052867;28;20219;-91
2023/12/11 12:07:06;;;;;;;2.07;0.40;;;10.00;99.90;;;;;;5035769;28;20185;-90
2023/12/11 12:09:33;;;;;;;0.17;0.17;;;9.90;99.90;;;;;;5034965;28;20275;-89
2023/12/11 12:12:00;;;;;;;1.03;0.63;;;10.00;99.90;;;;;;5052247;28;20221;-88
2023/12/11 12:14:26;;;;;;;6.53;1.07;;;9.90;99.90;;;;;;5024903;28;20250;-88
2023/12/11 12:16:53;;;;;;;6.20;0.60;;;9.90;99.90;;;;;;4998583;28;20239;-90
2023/12/11 12:19:31;;;;;;;2.93;0.47;;;9.80;99.90;;;;;;5032580;28;20206;-90
2023/12/11 12:21:58;;;;;;;0.20;0.20;;;9.80;99.90;;;;;;5015777;28;20197;-89
2023/12/11 12:24:25;;;;;;;0.30;0.30;;;9.70;99.90;;;;;;4983025;28;20298;-92
2023/12/11 12:27:05;;;;;;;0.20;0.20;;;9.70;99.90;;;;;;5014442;28;20221;-90
2023/12/11 12:29:32;;;;;;;1.80;0.83;;;9.70;99.90;;;;;;5034650;28;20218;-88
2023/12/11 12:32:02;;;;;;;0.20;0.20;;;9.70;99.90;;;;;;5018876;28;20219;-88
2023/12/11 12:34:32;;;;;;;0.10;0.10;;;9.70;99.90;;;;;;5035688;28;20171;-90
2023/12/11 12:37:01;;;;;;;0.20;0.20;;;9.50;99.90;;;;;;5035383;28;20238;-90
2023/12/11 12:39:26;;;;;;;0.20;0.20;;;9.60;99.90;;;;;;5002721;28;20222;-90
2023/12/11 12:41:52;;;;;;;0.73;0.73;;;9.60;99.90;;;;;;5036332;28;20720;-88
2023/12/11 12:44:18;;;;;;;36.80;1.30;;;9.50;99.90;;;;;;5018199;28;20218;-89
2023/12/11 12:46:50;;;;;;;0.10;0.10;;;9.50;99.90;;;;;;5018116;28;20230;-91